Time;durP1;ratioP1;P1;durP2;ratioP2;P2;SDS_P1;SDS_P2;PMS_P1;PMS_P2;Temp;Humidity;BMP_temperature;BMP_pressure;BME280_temperature;BME280_humidity;BME280_pressure;Samples;Min_cycle;Max_cycle;Signal;HPM_P1;HPM_P2
2021/03/24 00:00:27;;;;;;;17.67;13.93;;;;;;;;;;5282819;23;20243;-86
2021/03/24 00:08:30;;;;;;;17.13;14.90;;;;;;;;;;5539742;23;20466;-86
2021/03/24 00:10:56;;;;;;;18.50;13.43;;;;;;;;;;5234208;23;20481;-83
2021/03/24 00:13:25;;;;;;;17.93;13.70;;;;;;;;;;5019987;28;20587;-86
2021/03/24 00:24:07;;;;;;;15.07;13.33;;;;;;;;;;4163552;23;20456;-84
2021/03/24 00:26:36;;;;;;;21.83;14.50;;;;;;;;;;5001596;28;20498;-85
2021/03/24 00:29:08;;;;;;;16.87;15.07;;;;;;;;;;5001503;28;20436;-84
2021/03/24 00:31:41;;;;;;;14.47;12.90;;;;;;;;;;5002032;28;20428;-85
2021/03/24 00:34:16;;;;;;;15.30;12.70;;;;;;;;;;4995177;28;20387;-86
2021/03/24 00:36:47;;;;;;;15.90;14.27;;;;;;;;;;4983437;28;20411;-85
2021/03/24 00:39:29;;;;;;;13.00;11.93;;;;;;;;;;4985041;28;20475;-85
2021/03/24 00:42:02;;;;;;;13.38;11.98;;;;;;;;;;4965324;28;20446;-84
2021/03/24 00:44:34;;;;;;;16.73;14.93;;;;;;;;;;4983587;28;20183;-84
2021/03/24 00:47:14;;;;;;;18.10;14.77;;;;;;;;;;4966934;28;20459;-86
2021/03/24 00:49:44;;;;;;;11.70;10.60;;;;;;;;;;4968299;28;20428;-86
2021/03/24 00:52:16;;;;;;;14.30;12.13;;;;;;;;;;4984909;28;20498;-86
2021/03/24 00:54:45;;;;;;;16.97;13.57;;;;;;;;;;4996099;28;20439;-84
2021/03/24 00:57:18;;;;;;;15.10;13.17;;;;;;;;;;4983198;28;20416;-81
2021/03/24 00:59:55;;;;;;;16.03;13.17;;;;;;;;;;4970864;28;20428;-85
2021/03/24 01:02:25;;;;;;;16.03;12.83;;;;;;;;;;4967293;28;20408;-85
2021/03/24 01:04:54;;;;;;;15.90;12.83;;;;;;;;;;4965952;28;20710;-85
2021/03/24 01:13:11;;;;;;;12.67;11.07;;;;;;;;;;3137367;26;20947;-86
2021/03/24 01:15:46;;;;;;;14.47;12.03;;;;;;;;;;5009705;28;20383;-83
2021/03/24 01:18:21;;;;;;;16.30;12.20;;;;;;;;;;5020268;28;20498;-85
2021/03/24 01:20:47;;;;;;;14.82;13.20;;;;;;;;;;5011939;28;20413;-85
2021/03/24 01:23:19;;;;;;;17.67;13.10;;;;;;;;;;5071062;23;20226;-86
2021/03/24 01:25:46;;;;;;;15.73;11.75;;;;;;;;;;5014669;28;20465;-85
2021/03/24 01:28:23;;;;;;;15.27;12.77;;;;;;;;;;5016540;28;20163;-87
2021/03/24 01:30:50;;;;;;;14.00;11.70;;;;;;;;;;5017095;28;20445;-85
2021/03/24 01:33:17;;;;;;;13.13;11.70;;;;;;;;;;5018484;28;20415;-86
2021/03/24 01:35:49;;;;;;;14.30;11.17;;;;;;;;;;5019936;28;20426;-87
2021/03/24 01:38:18;;;;;;;14.53;12.43;;;;;;;;;;5029383;28;20434;-85
2021/03/24 01:40:52;;;;;;;13.03;11.80;;;;;;;;;;5011868;28;20414;-87
2021/03/24 01:43:27;;;;;;;17.63;13.63;;;;;;;;;;5010159;28;20461;-86
2021/03/24 01:46:12;;;;;;;13.43;10.23;;;;;;;;;;5010046;28;20894;-85
2021/03/24 01:48:39;;;;;;;17.20;12.80;;;;;;;;;;5025516;28;20938;-85
2021/03/24 01:51:06;;;;;;;12.77;11.17;;;;;;;;;;5008352;28;20433;-86
2021/03/24 01:53:33;;;;;;;18.50;12.53;;;;;;;;;;5008442;28;20445;-85
2021/03/24 01:56:00;;;;;;;12.25;10.95;;;;;;;;;;4992169;28;20410;-85
2021/03/24 01:58:26;;;;;;;14.70;10.85;;;;;;;;;;5009671;28;20183;-87
2021/03/24 02:00:55;;;;;;;18.42;12.85;;;;;;;;;;5009502;28;20251;-86
2021/03/24 02:03:24;;;;;;;19.70;12.90;;;;;;;;;;5009401;28;20191;-86
2021/03/24 02:05:50;;;;;;;13.50;12.17;;;;;;;;;;5009375;28;20463;-87
2021/03/24 02:08:23;;;;;;;15.43;13.20;;;;;;;;;;5010893;28;20409;-87
2021/03/24 02:11:16;;;;;;;17.50;12.07;;;;;;;;;;5010548;28;20398;-87
2021/03/24 02:13:57;;;;;;;14.87;12.00;;;;;;;;;;5008696;28;20534;-87
2021/03/24 02:16:29;;;;;;;16.00;12.43;;;;;;;;;;5025410;28;20371;-87
2021/03/24 02:19:02;;;;;;;15.50;12.97;;;;;;;;;;5008987;28;20435;-88
2021/03/24 02:21:36;;;;;;;13.43;12.00;;;;;;;;;;5009971;28;20415;-87
2021/03/24 02:24:23;;;;;;;14.30;12.77;;;;;;;;;;5029252;28;20510;-86
2021/03/24 02:27:05;;;;;;;19.13;12.60;;;;;;;;;;5011108;28;20478;-86
2021/03/24 02:29:33;;;;;;;14.47;11.40;;;;;;;;;;5007503;28;20426;-85
2021/03/24 02:32:00;;;;;;;17.20;13.80;;;;;;;;;;5008485;28;20411;-85
2021/03/24 02:34:28;;;;;;;12.80;11.50;;;;;;;;;;5008148;28;20502;-86
2021/03/24 02:36:58;;;;;;;13.50;12.17;;;;;;;;;;5008424;28;20407;-87
2021/03/24 02:39:29;;;;;;;14.07;12.60;;;;;;;;;;5008442;28;20518;-85
2021/03/24 02:44:57;;;;;;;15.73;11.10;;;;;;;;;;4889254;26;20499;-85
2021/03/24 02:47:25;;;;;;;17.30;12.63;;;;;;;;;;5033369;28;20460;-86
2021/03/24 02:49:52;;;;;;;18.53;12.30;;;;;;;;;;5034763;28;20409;-87
2021/03/24 02:52:19;;;;;;;16.73;13.10;;;;;;;;;;5044886;28;20434;-86
2021/03/24 02:54:46;;;;;;;14.13;12.73;;;;;;;;;;5028110;28;20402;-87
2021/03/24 02:59:55;;;;;;;;;;;;;;;;;;;;;
2021/03/24 03:03:13;;;;;;;;;;;;;;;;;;;;;
2021/03/24 03:09:42;;;;;;;14.23;12.83;;;;;;;;;;4922108;29;20437;-83
2021/03/24 03:12:11;;;;;;;16.50;13.57;;;;;;;;;;4941252;29;20427;-85
2021/03/24 03:15:07;;;;;;;18.90;13.10;;;;;;;;;;5010318;28;20422;-83
2021/03/24 03:17:53;;;;;;;14.53;12.90;;;;;;;;;;5005064;28;20480;-84
2021/03/24 03:20:50;;;;;;;14.70;13.30;;;;;;;;;;5015007;28;20444;-84
2021/03/24 03:23:21;;;;;;;16.50;13.00;;;;;;;;;;5025981;28;20512;-84
2021/03/24 03:25:53;;;;;;;16.43;13.10;;;;;;;;;;5025202;28;20466;-84
2021/03/24 03:28:23;;;;;;;16.30;13.90;;;;;;;;;;5025502;28;20501;-84
2021/03/24 03:30:53;;;;;;;18.60;12.67;;;;;;;;;;5043023;28;20937;-84
2021/03/24 03:33:27;;;;;;;17.08;14.95;;;;;;;;;;5043480;28;20390;-84
2021/03/24 03:35:56;;;;;;;15.83;12.87;;;;;;;;;;5025056;28;20210;-84
2021/03/24 03:38:24;;;;;;;15.03;13.40;;;;;;;;;;5042856;28;20430;-84
2021/03/24 03:41:19;;;;;;;16.30;13.77;;;;;;;;;;5025921;28;20481;-84
2021/03/24 03:43:47;;;;;;;14.80;13.40;;;;;;;;;;5022859;28;20881;-84
2021/03/24 03:46:18;;;;;;;18.63;13.87;;;;;;;;;;5025429;28;20457;-84
2021/03/24 03:48:45;;;;;;;15.23;13.63;;;;;;;;;;5027218;28;20461;-84
2021/03/24 03:51:13;;;;;;;13.43;12.00;;;;;;;;;;5031154;28;20422;-84
2021/03/24 03:53:43;;;;;;;15.20;12.77;;;;;;;;;;5031119;28;20414;-84
2021/03/24 03:56:14;;;;;;;18.97;13.53;;;;;;;;;;5046999;28;20464;-84
2021/03/24 03:58:42;;;;;;;16.03;12.80;;;;;;;;;;5024723;28;20462;-84
2021/03/24 04:01:15;;;;;;;15.33;13.73;;;;;;;;;;5042823;28;20410;-84
2021/03/24 04:04:07;;;;;;;17.43;14.13;;;;;;;;;;5044198;28;20525;-84
2021/03/24 04:06:39;;;;;;;17.33;15.17;;;;;;;;;;5014718;28;20493;-84
2021/03/24 04:09:07;;;;;;;16.43;14.70;;;;;;;;;;5033006;28;20422;-84
2021/03/24 04:11:35;;;;;;;18.13;14.60;;;;;;;;;;5029511;28;20414;-84
2021/03/24 04:14:04;;;;;;;14.90;13.33;;;;;;;;;;5049497;28;20418;-83
2021/03/24 04:16:30;;;;;;;18.03;13.40;;;;;;;;;;5033639;28;20426;-83
2021/03/24 04:19:00;;;;;;;16.47;14.00;;;;;;;;;;5031136;28;20506;-83
2021/03/24 04:21:28;;;;;;;19.13;13.30;;;;;;;;;;5035088;28;20421;-83
2021/03/24 04:23:58;;;;;;;17.65;14.45;;;;;;;;;;5047107;28;20406;-84
2021/03/24 04:26:27;;;;;;;19.20;15.50;;;;;;;;;;5042889;28;20202;-84
2021/03/24 04:28:56;;;;;;;20.30;15.83;;;;;;;;;;5025135;28;20518;-84
2021/03/24 04:31:24;;;;;;;16.60;13.50;;;;;;;;;;5027001;28;20500;-84
2021/03/24 04:33:51;;;;;;;17.60;15.37;;;;;;;;;;5044531;28;20414;-84
2021/03/24 04:36:23;;;;;;;20.90;15.70;;;;;;;;;;5009932;28;20413;-84
2021/03/24 04:38:52;;;;;;;16.60;13.20;;;;;;;;;;5026250;28;20983;-84
2021/03/24 04:41:23;;;;;;;17.93;15.97;;;;;;;;;;5045230;28;20422;-84
2021/03/24 04:43:57;;;;;;;16.70;15.00;;;;;;;;;;5044854;28;20406;-84
2021/03/24 04:46:25;;;;;;;14.93;12.57;;;;;;;;;;5043519;28;20474;-85
2021/03/24 04:48:55;;;;;;;16.77;13.27;;;;;;;;;;5043616;28;20458;-84
2021/03/24 04:51:32;;;;;;;20.10;15.73;;;;;;;;;;5049773;28;20386;-84
2021/03/24 04:54:05;;;;;;;19.40;15.27;;;;;;;;;;5032205;28;20413;-84
2021/03/24 04:56:31;;;;;;;21.87;14.97;;;;;;;;;;5029138;28;20425;-84
2021/03/24 04:58:57;;;;;;;23.13;16.30;;;;;;;;;;5046217;28;20446;-84
2021/03/24 05:01:44;;;;;;;22.07;19.50;;;;;;;;;;5029991;28;20445;-84
2021/03/24 05:04:18;;;;;;;19.33;16.77;;;;;;;;;;5046835;28;20413;-85
2021/03/24 05:06:48;;;;;;;21.53;15.53;;;;;;;;;;5027981;28;20540;-85
2021/03/24 05:09:15;;;;;;;19.87;17.80;;;;;;;;;;5046574;28;20782;-85
2021/03/24 05:11:56;;;;;;;16.50;14.40;;;;;;;;;;5028270;28;20548;-84
2021/03/24 05:14:25;;;;;;;17.50;15.80;;;;;;;;;;5046915;28;20485;-83
2021/03/24 05:16:54;;;;;;;17.20;15.40;;;;;;;;;;5029995;28;20417;-84
2021/03/24 05:19:28;;;;;;;21.07;15.50;;;;;;;;;;5029418;28;20225;-84
2021/03/24 05:22:17;;;;;;;22.40;17.07;;;;;;;;;;5029628;28;20429;-84
2021/03/24 05:24:44;;;;;;;24.43;17.60;;;;;;;;;;5033863;28;20469;-84
2021/03/24 05:27:28;;;;;;;21.43;16.90;;;;;;;;;;5028173;28;20551;-84
2021/03/24 05:29:56;;;;;;;24.37;16.57;;;;;;;;;;5029852;28;20409;-83
2021/03/24 05:32:27;;;;;;;17.40;14.80;;;;;;;;;;5048368;28;20410;-84
2021/03/24 05:34:55;;;;;;;24.30;19.70;;;;;;;;;;5032634;28;20398;-84
2021/03/24 05:37:28;;;;;;;24.63;19.35;;;;;;;;;;5030989;28;20426;-85
2021/03/24 05:39:54;;;;;;;22.70;20.33;;;;;;;;;;5030378;28;20267;-85
2021/03/24 05:42:29;;;;;;;24.23;21.50;;;;;;;;;;5046670;28;20994;-83
2021/03/24 05:44:55;;;;;;;28.87;21.90;;;;;;;;;;5047116;28;20467;-84
2021/03/24 05:47:40;;;;;;;26.30;22.50;;;;;;;;;;5029080;28;20461;-83
2021/03/24 05:50:26;;;;;;;22.30;19.40;;;;;;;;;;5046409;28;20913;-84
2021/03/24 05:52:52;;;;;;;23.10;20.93;;;;;;;;;;5047570;28;20374;-84
2021/03/24 05:55:32;;;;;;;21.83;19.47;;;;;;;;;;5030702;28;20452;-84
2021/03/24 05:58:07;;;;;;;28.90;23.40;;;;;;;;;;5047562;28;20433;-84
2021/03/24 06:00:41;;;;;;;25.43;22.80;;;;;;;;;;5031888;28;20421;-83
2021/03/24 06:03:10;;;;;;;22.90;19.00;;;;;;;;;;5048659;28;20482;-84
2021/03/24 06:05:39;;;;;;;24.07;21.53;;;;;;;;;;5028472;28;20717;-85
2021/03/24 06:08:20;;;;;;;26.90;21.53;;;;;;;;;;5045611;28;20440;-85
2021/03/24 06:11:05;;;;;;;22.10;18.70;;;;;;;;;;5028677;28;20421;-84
2021/03/24 06:13:50;;;;;;;26.60;21.07;;;;;;;;;;5045944;28;20414;-84
2021/03/24 06:16:40;;;;;;;24.60;21.83;;;;;;;;;;5046762;28;20480;-84
2021/03/24 06:19:12;;;;;;;52.80;28.30;;;;;;;;;;5013321;28;20799;-84
2021/03/24 06:21:55;;;;;;;78.20;38.40;;;;;;;;;;5031242;28;20509;-84
2021/03/24 06:24:30;;;;;;;41.10;30.97;;;;;;;;;;5033790;28;20393;-83
2021/03/24 06:27:03;;;;;;;32.13;24.80;;;;;;;;;;5023392;28;20492;-84
2021/03/24 06:33:45;;;;;;;35.70;26.70;;;;;;;;;;4920518;29;20438;-86
2021/03/24 06:36:30;;;;;;;34.83;27.40;;;;;;;;;;4917474;29;20578;-85
2021/03/24 06:39:02;;;;;;;34.53;27.47;;;;;;;;;;4993276;28;20995;-85
2021/03/24 06:41:33;;;;;;;37.20;29.73;;;;;;;;;;5029280;28;20505;-85
2021/03/24 06:44:19;;;;;;;46.53;33.73;;;;;;;;;;5029878;28;20471;-84
2021/03/24 06:47:04;;;;;;;45.30;30.87;;;;;;;;;;5012818;28;20458;-83
2021/03/24 06:49:49;;;;;;;;;;;;;;;;;;;;;
2021/03/24 06:52:27;;;;;;;44.93;34.90;;;;;;;;;;5052094;28;20393;-84
2021/03/24 06:55:15;;;;;;;37.60;30.67;;;;;;;;;;5036284;28;20766;-84
2021/03/24 06:58:06;;;;;;;60.87;39.33;;;;;;;;;;5030815;28;20460;-85
2021/03/24 07:00:41;;;;;;;44.20;32.67;;;;;;;;;;5033124;28;20414;-85
2021/03/24 07:03:19;;;;;;;79.63;43.23;;;;;;;;;;5016338;28;20410;-84
2021/03/24 07:05:46;;;;;;;41.03;36.57;;;;;;;;;;5049280;28;20460;-84
2021/03/24 07:08:26;;;;;;;42.27;33.60;;;;;;;;;;4997325;28;20443;-84
2021/03/24 07:11:12;;;;;;;45.73;35.63;;;;;;;;;;5000305;28;20829;-85
2021/03/24 07:13:54;;;;;;;61.20;41.93;;;;;;;;;;5017016;28;20418;-84
2021/03/24 07:16:29;;;;;;;44.57;36.77;;;;;;;;;;5018364;28;20490;-85
2021/03/24 07:19:04;;;;;;;44.93;38.80;;;;;;;;;;5018986;28;20438;-84
2021/03/24 07:21:49;;;;;;;44.10;36.43;;;;;;;;;;5002404;28;20465;-85
2021/03/24 07:24:34;;;;;;;50.80;39.40;;;;;;;;;;5016964;28;20474;-85
2021/03/24 07:27:19;;;;;;;52.87;40.37;;;;;;;;;;5033521;28;20450;-85
2021/03/24 07:30:12;;;;;;;50.03;40.83;;;;;;;;;;5031135;28;20446;-84
2021/03/24 07:32:42;;;;;;;46.30;36.60;;;;;;;;;;5027486;28;20379;-86
2021/03/24 07:35:18;;;;;;;49.53;39.37;;;;;;;;;;5009604;28;20448;-85
2021/03/24 07:38:03;;;;;;;129.83;59.97;;;;;;;;;;5009066;28;20450;-86
2021/03/24 07:40:58;;;;;;;48.27;40.80;;;;;;;;;;5009600;28;20453;-86
2021/03/24 07:44:14;;;;;;;45.20;36.77;;;;;;;;;;4992468;28;20427;-84
2021/03/24 07:47:13;;;;;;;62.53;43.90;;;;;;;;;;4983232;28;20470;-84
2021/03/24 07:49:39;;;;;;;52.20;46.17;;;;;;;;;;5009452;28;20416;-84
2021/03/24 07:52:17;;;;;;;49.17;43.80;;;;;;;;;;5032647;28;20410;-84
2021/03/24 07:55:06;;;;;;;55.40;45.13;;;;;;;;;;5011958;28;20417;-85
2021/03/24 07:57:35;;;;;;;49.00;42.97;;;;;;;;;;4998251;28;20435;-84
2021/03/24 08:00:11;;;;;;;52.20;41.37;;;;;;;;;;5012484;28;20497;-84
2021/03/24 08:02:59;;;;;;;48.60;38.60;;;;;;;;;;5015719;28;20410;-85
2021/03/24 08:05:46;;;;;;;48.77;40.73;;;;;;;;;;4999109;28;20494;-84
2021/03/24 08:08:16;;;;;;;53.10;39.87;;;;;;;;;;5033781;28;20435;-84
2021/03/24 08:10:56;;;;;;;42.57;37.93;;;;;;;;;;4998911;28;20399;-85
2021/03/24 08:14:01;;;;;;;48.90;38.07;;;;;;;;;;5036069;28;20433;-83
2021/03/24 08:16:48;;;;;;;48.00;39.53;;;;;;;;;;4956350;29;20484;-84
2021/03/24 08:19:35;;;;;;;47.23;38.10;;;;;;;;;;5014682;28;20441;-84
2021/03/24 08:22:02;;;;;;;49.53;39.60;;;;;;;;;;5017363;28;20398;-84
2021/03/24 08:24:31;;;;;;;48.30;38.50;;;;;;;;;;5010612;28;20481;-84
2021/03/24 08:27:06;;;;;;;43.03;37.00;;;;;;;;;;5011709;28;20437;-84
2021/03/24 08:29:52;;;;;;;49.20;38.27;;;;;;;;;;5012231;28;20427;-84
2021/03/24 08:32:37;;;;;;;50.73;37.93;;;;;;;;;;4995266;28;20415;-84
2021/03/24 08:35:10;;;;;;;46.50;38.20;;;;;;;;;;5011399;28;20416;-84
2021/03/24 08:37:49;;;;;;;48.27;39.20;;;;;;;;;;5011121;28;20482;-84
2021/03/24 08:40:34;;;;;;;48.37;39.50;;;;;;;;;;5007398;28;20470;-84
2021/03/24 08:43:04;;;;;;;47.20;38.87;;;;;;;;;;4992459;28;20402;-84
2021/03/24 08:45:54;;;;;;;47.87;38.30;;;;;;;;;;5007575;28;20398;-84
2021/03/24 08:48:40;;;;;;;43.53;36.27;;;;;;;;;;4991679;28;20429;-84
2021/03/24 08:51:16;;;;;;;51.73;41.00;;;;;;;;;;5008036;28;20394;-84
2021/03/24 08:53:50;;;;;;;41.67;36.57;;;;;;;;;;5027210;28;20405;-84
2021/03/24 08:56:25;;;;;;;45.70;36.03;;;;;;;;;;5008851;28;20395;-85
2021/03/24 08:59:10;;;;;;;45.07;37.80;;;;;;;;;;5068225;23;20511;-86
2021/03/24 09:02:01;;;;;;;43.00;36.93;;;;;;;;;;5009877;28;20499;-88
2021/03/24 09:04:41;;;;;;;49.87;39.27;;;;;;;;;;5012140;28;20430;-87
2021/03/24 09:07:32;;;;;;;46.27;37.70;;;;;;;;;;5008765;28;20537;-88
2021/03/24 09:10:09;;;;;;;50.50;38.70;;;;;;;;;;4991598;28;20427;-85
2021/03/24 09:12:39;;;;;;;47.30;39.40;;;;;;;;;;4989621;28;20414;-86
2021/03/24 09:15:12;;;;;;;48.30;37.77;;;;;;;;;;4989730;28;20422;-87
2021/03/24 09:18:05;;;;;;;44.57;37.57;;;;;;;;;;4987929;28;20423;-85
2021/03/24 09:21:00;;;;;;;45.23;37.63;;;;;;;;;;4988693;28;20496;-85
2021/03/24 09:23:35;;;;;;;51.00;37.93;;;;;;;;;;4990026;28;20443;-85
2021/03/24 09:26:37;;;;;;;47.77;41.13;;;;;;;;;;4988736;28;20455;-88
2021/03/24 09:29:40;;;;;;;48.43;40.60;;;;;;;;;;4988003;28;20507;-85
2021/03/24 09:32:42;;;;;;;54.23;40.50;;;;;;;;;;4989321;28;20443;-85
2021/03/24 09:35:44;;;;;;;49.23;42.27;;;;;;;;;;4946604;29;20453;-87
2021/03/24 09:38:36;;;;;;;54.40;41.20;;;;;;;;;;5229212;23;20455;-85
2021/03/24 09:41:22;;;;;;;48.83;38.07;;;;;;;;;;5018487;28;20434;-87
2021/03/24 09:43:55;;;;;;;49.10;41.33;;;;;;;;;;5012571;28;20450;-87
2021/03/24 09:46:37;;;;;;;48.83;38.07;;;;;;;;;;5012964;28;20508;-87
2021/03/24 09:49:16;;;;;;;52.27;37.97;;;;;;;;;;5012858;28;20441;-87
2021/03/24 09:52:11;;;;;;;53.00;39.53;;;;;;;;;;5027539;28;20424;-87
2021/03/24 09:54:58;;;;;;;50.47;39.33;;;;;;;;;;5015924;28;20411;-87
2021/03/24 10:03:03;;;;;;;46.50;37.73;;;;;;;;;;4388493;23;21047;-86
2021/03/24 10:05:41;;;;;;;48.77;39.67;;;;;;;;;;5051781;28;20487;-88
2021/03/24 10:08:12;;;;;;;51.90;38.80;;;;;;;;;;5048079;28;20483;-86
2021/03/24 10:11:02;;;;;;;;;;;;;;;;;;;;;
2021/03/24 10:13:46;;;;;;;41.90;37.07;;;;;;;;;;5051844;28;20421;-87
2021/03/24 10:16:27;;;;;;;46.87;35.20;;;;;;;;;;5035540;28;20410;-88
2021/03/24 10:19:23;;;;;;;48.07;37.13;;;;;;;;;;5034933;28;20437;-87
2021/03/24 10:22:13;;;;;;;46.20;38.60;;;;;;;;;;5017470;28;20437;-86
2021/03/24 10:25:17;;;;;;;43.33;38.07;;;;;;;;;;5020093;28;20418;-88
2021/03/24 10:27:56;;;;;;;47.83;39.27;;;;;;;;;;5014601;28;20496;-88
2021/03/24 10:30:39;;;;;;;50.10;41.37;;;;;;;;;;5016149;28;20433;-88
2021/03/24 10:33:17;;;;;;;42.77;37.10;;;;;;;;;;5015271;28;20448;-88
2021/03/24 10:35:54;;;;;;;47.57;38.10;;;;;;;;;;5052264;28;20397;-88
2021/03/24 10:38:43;;;;;;;49.90;38.23;;;;;;;;;;5018688;28;20425;-86
2021/03/24 10:41:25;;;;;;;53.97;42.23;;;;;;;;;;5036347;28;20394;-89
2021/03/24 10:43:54;;;;;;;46.73;38.60;;;;;;;;;;5052488;28;20405;-88
2021/03/24 10:46:39;;;;;;;49.37;40.47;;;;;;;;;;5017346;28;20460;-87
2021/03/24 10:49:20;;;;;;;48.37;38.40;;;;;;;;;;5034770;28;20494;-87
2021/03/24 10:51:53;;;;;;;46.77;37.03;;;;;;;;;;5020113;28;20414;-87
2021/03/24 10:54:28;;;;;;;48.50;38.10;;;;;;;;;;5017552;28;20418;-86
2021/03/24 10:56:58;;;;;;;44.53;35.70;;;;;;;;;;5018277;28;20413;-88
2021/03/24 10:59:35;;;;;;;47.40;39.90;;;;;;;;;;5034224;28;20430;-87
2021/03/24 11:02:43;;;;;;;48.07;37.60;;;;;;;;;;5052595;28;20481;-86
2021/03/24 11:05:14;;;;;;;54.60;37.30;;;;;;;;;;4992190;28;20557;-87
2021/03/24 11:07:48;;;;;;;41.67;33.70;;;;;;;;;;5015763;28;20453;-87
2021/03/24 11:10:42;;;;;;;37.87;31.27;;;;;;;;;;5016494;28;20405;-87
2021/03/24 11:13:33;;;;;;;37.53;31.13;;;;;;;;;;5035882;28;20425;-88
2021/03/24 11:16:05;;;;;;;34.37;28.80;;;;;;;;;;5027561;28;20513;-88
2021/03/24 11:18:39;;;;;;;33.10;27.83;;;;;;;;;;5037369;28;20435;-88
2021/03/24 11:21:27;;;;;;;26.53;23.50;;;;;;;;;;5019118;28;20524;-87
2021/03/24 11:23:58;;;;;;;31.30;27.30;;;;;;;;;;5018261;28;20529;-88
2021/03/24 11:26:33;;;;;;;33.30;25.43;;;;;;;;;;5017985;28;20465;-88
2021/03/24 11:29:05;;;;;;;32.63;28.90;;;;;;;;;;5035317;28;20426;-89
2021/03/24 11:31:50;;;;;;;31.50;25.90;;;;;;;;;;5019543;28;20445;-88
2021/03/24 11:34:23;;;;;;;33.90;26.97;;;;;;;;;;5017539;28;20979;-87
2021/03/24 11:37:14;;;;;;;36.80;28.43;;;;;;;;;;5016637;28;20402;-87
2021/03/24 11:40:21;;;;;;;29.80;24.37;;;;;;;;;;5015915;28;20478;-87
2021/03/24 11:42:55;;;;;;;31.40;28.10;;;;;;;;;;5033312;28;20417;-86
2021/03/24 11:45:47;;;;;;;35.10;27.17;;;;;;;;;;5015757;28;20410;-86
2021/03/24 11:48:40;;;;;;;32.60;26.77;;;;;;;;;;5278730;23;21109;-88
2021/03/24 11:51:06;;;;;;;32.83;29.00;;;;;;;;;;4997575;28;20518;-88
2021/03/24 11:53:52;;;;;;;35.80;29.73;;;;;;;;;;5013716;28;20423;-85
2021/03/24 11:56:40;;;;;;;36.87;29.33;;;;;;;;;;5014622;28;20435;-88
2021/03/24 11:59:29;;;;;;;34.13;30.47;;;;;;;;;;5013362;28;20442;-88
2021/03/24 12:02:15;;;;;;;32.77;29.00;;;;;;;;;;4974556;28;20498;-87
2021/03/24 12:04:55;;;;;;;36.27;32.37;;;;;;;;;;5018415;28;20400;-87
2021/03/24 12:07:55;;;;;;;36.87;29.50;;;;;;;;;;5016310;28;20450;-87
2021/03/24 12:10:58;;;;;;;33.40;29.40;;;;;;;;;;5014516;28;20416;-86
2021/03/24 12:13:46;;;;;;;31.07;27.47;;;;;;;;;;4953355;28;20489;-87
2021/03/24 12:16:39;;;;;;;29.70;26.50;;;;;;;;;;4935397;29;20420;-88
2021/03/24 12:19:14;;;;;;;38.70;28.50;;;;;;;;;;4936562;29;20432;-87
2021/03/24 12:21:49;;;;;;;36.53;32.60;;;;;;;;;;4949780;29;20466;-86
2021/03/24 12:24:29;;;;;;;41.63;32.70;;;;;;;;;;4935457;29;20410;-87
2021/03/24 12:27:19;;;;;;;46.40;34.50;;;;;;;;;;4951141;29;20426;-88
2021/03/24 12:30:00;;;;;;;39.77;32.03;;;;;;;;;;4950683;29;20438;-86
2021/03/24 12:32:35;;;;;;;36.60;32.90;;;;;;;;;;4940002;29;20410;-87
2021/03/24 12:35:04;;;;;;;35.97;31.07;;;;;;;;;;4938943;29;20417;-85
2021/03/24 12:37:55;;;;;;;39.43;32.23;;;;;;;;;;4935900;29;20479;-86
2021/03/24 12:40:26;;;;;;;31.20;27.97;;;;;;;;;;4948477;29;20422;-87
2021/03/24 12:52:59;;;;;;;36.63;31.40;;;;;;;;;;5300851;23;20476;-87
2021/03/24 12:55:31;;;;;;;34.90;31.40;;;;;;;;;;4999403;28;20441;-86
2021/03/24 13:13:43;;;;;;;;;;;;;;;;;;;;;
2021/03/24 13:16:37;;;;;;;36.33;30.37;;;;;;;;;;4822921;29;20435;-86
2021/03/24 13:19:15;;;;;;;34.90;28.10;;;;;;;;;;4785710;29;20512;-87
2021/03/24 13:22:23;;;;;;;34.50;30.90;;;;;;;;;;4805670;29;20500;-86
2021/03/24 13:25:47;;;;;;;32.80;29.23;;;;;;;;;;4786543;30;20442;-88
2021/03/24 13:28:56;;;;;;;34.87;27.90;;;;;;;;;;4739669;30;20503;-88
2021/03/24 13:32:13;;;;;;;;;;;;;;;;;;;;;
2021/03/24 14:07:04;;;;;;;;;;;;;;;;;;;;;
2021/03/24 15:00:34;;;;;;;43.50;35.77;;;;;;;;;;4974623;29;20482;-82
2021/03/24 15:03:24;;;;;;;36.67;32.70;;;;;;;;;;4953565;28;20436;-82
2021/03/24 15:05:52;;;;;;;36.87;32.03;;;;;;;;;;4963478;29;20409;-83
2021/03/24 15:08:23;;;;;;;40.03;34.87;;;;;;;;;;4950354;29;20418;-82
2021/03/24 15:10:55;;;;;;;39.93;33.70;;;;;;;;;;4951975;29;20417;-83
2021/03/24 15:13:36;;;;;;;39.20;33.20;;;;;;;;;;4968383;28;20441;-83
2021/03/24 15:16:06;;;;;;;41.53;34.30;;;;;;;;;;4968515;28;20441;-84
2021/03/24 15:18:51;;;;;;;38.10;32.10;;;;;;;;;;4951332;29;20433;-84
2021/03/24 15:21:27;;;;;;;39.63;34.60;;;;;;;;;;4968071;28;20414;-84
2021/03/24 15:23:56;;;;;;;42.67;36.10;;;;;;;;;;4971233;28;20505;-82
2021/03/24 15:26:41;;;;;;;45.60;37.53;;;;;;;;;;4973925;29;20965;-83
2021/03/24 15:29:16;;;;;;;41.17;33.77;;;;;;;;;;4974326;28;20981;-82
2021/03/24 15:31:43;;;;;;;36.80;32.93;;;;;;;;;;4974798;28;20412;-82
2021/03/24 15:34:28;;;;;;;44.93;34.70;;;;;;;;;;4973958;28;20416;-83
2021/03/24 15:37:06;;;;;;;44.60;36.40;;;;;;;;;;4974268;29;20485;-83
2021/03/24 15:39:43;;;;;;;42.00;37.47;;;;;;;;;;4974683;29;20425;-82
2021/03/24 15:42:25;;;;;;;42.00;34.87;;;;;;;;;;4956175;29;20409;-84
2021/03/24 15:45:11;;;;;;;41.63;35.07;;;;;;;;;;4974233;28;20417;-83
2021/03/24 15:47:38;;;;;;;45.10;39.50;;;;;;;;;;4956423;29;20461;-82
2021/03/24 15:50:13;;;;;;;43.37;35.57;;;;;;;;;;4972137;28;20473;-81
2021/03/24 15:52:40;;;;;;;40.47;36.23;;;;;;;;;;4970900;28;20420;-83
2021/03/24 15:55:07;;;;;;;45.93;37.80;;;;;;;;;;4955948;29;20437;-84
2021/03/24 15:57:52;;;;;;;43.27;36.90;;;;;;;;;;4972425;29;20429;-83
2021/03/24 16:00:47;;;;;;;49.70;38.30;;;;;;;;;;4969280;28;20452;-83
2021/03/24 16:03:26;;;;;;;46.00;37.90;;;;;;;;;;4947900;29;20425;-83
2021/03/24 16:06:01;;;;;;;41.90;37.63;;;;;;;;;;4971522;28;20426;-84
2021/03/24 16:08:47;;;;;;;43.80;37.70;;;;;;;;;;4973652;29;20501;-83
2021/03/24 16:11:13;;;;;;;42.17;35.40;;;;;;;;;;4974696;28;20416;-83
2021/03/24 16:13:46;;;;;;;43.07;38.00;;;;;;;;;;4975186;28;20401;-83
2021/03/24 16:16:12;;;;;;;44.33;39.57;;;;;;;;;;4969947;28;20533;-81
2021/03/24 16:18:42;;;;;;;41.80;36.20;;;;;;;;;;4945131;29;20462;-84
2021/03/24 16:21:27;;;;;;;40.27;34.57;;;;;;;;;;4943861;29;20503;-85
2021/03/24 16:23:54;;;;;;;42.83;35.87;;;;;;;;;;4947429;29;20422;-83
2021/03/24 16:26:26;;;;;;;46.33;38.93;;;;;;;;;;4930909;29;20468;-84
2021/03/24 16:28:57;;;;;;;49.63;39.30;;;;;;;;;;4947177;28;20632;-84
2021/03/24 16:31:37;;;;;;;44.90;39.33;;;;;;;;;;4945215;29;20814;-83
2021/03/24 16:34:12;;;;;;;44.43;36.17;;;;;;;;;;4944017;28;20532;-82
2021/03/24 16:36:57;;;;;;;47.23;40.50;;;;;;;;;;4945520;29;20422;-84
2021/03/24 16:39:36;;;;;;;49.30;38.80;;;;;;;;;;4943975;28;20430;-83
2021/03/24 16:42:05;;;;;;;45.53;39.90;;;;;;;;;;4944531;28;20425;-83
2021/03/24 16:44:46;;;;;;;46.40;39.17;;;;;;;;;;4945021;29;20410;-84
2021/03/24 16:47:16;;;;;;;46.17;38.60;;;;;;;;;;4944222;28;20482;-84
2021/03/24 16:50:00;;;;;;;45.17;40.27;;;;;;;;;;4945127;29;20456;-83
2021/03/24 16:52:46;;;;;;;47.97;36.70;;;;;;;;;;4944022;29;20927;-84
2021/03/24 16:55:26;;;;;;;44.60;38.10;;;;;;;;;;4945358;29;20465;-83
2021/03/24 16:57:56;;;;;;;47.40;40.03;;;;;;;;;;4943039;29;20435;-84
2021/03/24 17:00:22;;;;;;;45.10;40.53;;;;;;;;;;4927738;29;20478;-84
2021/03/24 17:03:09;;;;;;;46.50;41.50;;;;;;;;;;4943517;29;20466;-83
2021/03/24 17:05:35;;;;;;;51.33;40.50;;;;;;;;;;4944365;29;20426;-82
2021/03/24 17:08:02;;;;;;;56.40;43.90;;;;;;;;;;4943270;29;20552;-83
2021/03/24 17:10:47;;;;;;;46.27;39.10;;;;;;;;;;4944889;28;20473;-83
2021/03/24 17:13:16;;;;;;;46.23;39.77;;;;;;;;;;4945624;29;20499;-82
2021/03/24 17:15:45;;;;;;;47.23;42.03;;;;;;;;;;4944488;28;20453;-84
2021/03/24 17:18:18;;;;;;;50.80;40.27;;;;;;;;;;4944551;29;20462;-82
2021/03/24 17:21:03;;;;;;;45.63;39.87;;;;;;;;;;4944777;29;20872;-82
2021/03/24 17:23:33;;;;;;;50.03;40.50;;;;;;;;;;4943369;29;20493;-84
2021/03/24 17:26:14;;;;;;;52.67;42.57;;;;;;;;;;4943427;28;20450;-84
2021/03/24 17:28:41;;;;;;;50.63;40.40;;;;;;;;;;4945581;29;20462;-83
2021/03/24 17:31:10;;;;;;;54.90;45.83;;;;;;;;;;4946172;29;20399;-83
2021/03/24 17:33:48;;;;;;;53.63;43.43;;;;;;;;;;4946457;29;20406;-83
2021/03/24 17:36:23;;;;;;;57.03;44.40;;;;;;;;;;4946468;28;20511;-83
2021/03/24 17:38:54;;;;;;;56.60;45.57;;;;;;;;;;4945565;28;20442;-84
2021/03/24 17:41:22;;;;;;;53.70;47.87;;;;;;;;;;4945784;28;20414;-84
2021/03/24 17:43:58;;;;;;;56.00;47.50;;;;;;;;;;4946370;29;20509;-83
2021/03/24 17:46:46;;;;;;;56.43;44.53;;;;;;;;;;4944819;29;20492;-84
2021/03/24 17:49:15;;;;;;;57.33;44.77;;;;;;;;;;4945790;28;20489;-83
2021/03/24 17:51:41;;;;;;;53.73;46.63;;;;;;;;;;4943020;29;20425;-84